createdAt,value
2024-04-09T00:00:15.681Z,4.22
2024-04-09T00:02:43.547Z,4.85
2024-04-09T00:05:12.504Z,4.47
2024-04-09T00:07:40.345Z,3.50
2024-04-09T00:10:08.506Z,3.55
2024-04-09T00:12:37.608Z,3.67
2024-04-09T00:15:09.754Z,4.00
2024-04-09T00:17:46.772Z,4.05
2024-04-09T00:20:19.672Z,3.47
2024-04-09T00:22:47.893Z,4.10
2024-04-09T00:25:20.357Z,3.75
2024-04-09T00:27:48.794Z,3.15
2024-04-09T00:30:19.624Z,3.25
2024-04-09T00:32:59.193Z,3.78
2024-04-09T00:35:27.778Z,2.80
2024-04-09T00:37:56.364Z,3.65
2024-04-09T00:40:26.201Z,3.83
2024-04-09T00:42:59.142Z,3.30
2024-04-09T00:45:27.149Z,3.70
2024-04-09T00:47:55.992Z,3.13
2024-04-09T00:50:25.664Z,3.08
2024-04-09T00:52:56.740Z,3.47
2024-04-09T00:55:27.976Z,2.80
2024-04-09T00:57:58.131Z,3.08
2024-04-09T01:00:26.003Z,3.20
2024-04-09T01:02:55.415Z,3.20
2024-04-09T01:05:23.511Z,2.85
2024-04-09T01:07:51.388Z,3.15
2024-04-09T01:10:19.226Z,3.47
2024-04-09T01:12:47.034Z,3.25
2024-04-09T01:15:14.901Z,3.20
2024-04-09T01:17:42.904Z,2.78
2024-04-09T01:20:14.632Z,3.25
2024-04-09T01:22:42.892Z,3.65
2024-04-09T01:25:11.973Z,2.90
2024-04-09T01:27:40.370Z,3.92
2024-04-09T01:30:10.061Z,4.38
2024-04-09T01:32:46.271Z,3.40
2024-04-09T01:35:15.836Z,4.55
2024-04-09T01:37:44.483Z,3.95
2024-04-09T01:40:14.097Z,4.00
2024-04-09T01:42:41.924Z,4.25
2024-04-09T01:45:10.320Z,4.13
2024-04-09T01:47:38.321Z,4.40
2024-04-09T01:50:07.095Z,3.78
2024-04-09T01:52:36.585Z,5.03
2024-04-09T01:55:06.987Z,4.32
2024-04-09T01:57:34.901Z,4.35
2024-04-09T02:00:13.528Z,4.22
2024-04-09T02:02:45.215Z,3.75
2024-04-09T02:05:14.340Z,3.63
2024-04-09T02:07:42.832Z,3.50
2024-04-09T02:10:13.727Z,3.55
2024-04-09T02:12:42.390Z,3.08
2024-04-09T02:15:14.639Z,3.13
2024-04-09T02:17:42.579Z,2.90
2024-04-09T02:20:11.978Z,3.72
2024-04-09T02:22:40.282Z,3.60
2024-04-09T02:25:08.986Z,3.28
2024-04-09T02:27:37.210Z,3.35
2024-04-09T02:30:05.466Z,3.38
2024-04-09T02:32:33.526Z,3.22
2024-04-09T02:35:02.852Z,3.40
2024-04-09T02:37:30.768Z,4.70
2024-04-09T02:40:00.383Z,4.15
2024-04-09T02:42:29.059Z,4.28
2024-04-09T02:44:57.015Z,4.82
2024-04-09T02:47:25.325Z,4.82
2024-04-09T02:49:54.244Z,5.68
2024-04-09T02:52:22.387Z,5.07
2024-04-09T02:54:50.199Z,5.00
2024-04-09T02:57:18.180Z,5.15
2024-04-09T02:59:46.298Z,5.35
2024-04-09T03:02:14.259Z,4.90
2024-04-09T03:07:11.226Z,4.60
2024-04-09T03:09:39.938Z,4.85
2024-04-09T03:12:08.920Z,4.95
2024-04-09T03:14:36.855Z,5.03
2024-04-09T03:17:07.618Z,5.30
2024-04-09T03:19:35.414Z,5.60
2024-04-09T03:22:03.254Z,4.72
2024-04-09T03:24:31.335Z,4.93
2024-04-09T03:26:59.239Z,5.18
2024-04-09T03:29:27.276Z,5.78
2024-04-09T03:31:55.131Z,4.90
2024-04-09T03:34:23.089Z,5.40
2024-04-09T03:36:52.577Z,4.68
2024-04-09T03:39:21.094Z,5.18
2024-04-09T03:41:48.882Z,4.50
2024-04-09T03:44:16.761Z,5.07
2024-04-09T03:46:44.812Z,4.85
2024-04-09T03:49:12.798Z,4.65
2024-04-09T03:51:40.874Z,4.05
2024-04-09T03:54:10.884Z,4.47
2024-04-09T03:56:38.905Z,3.95
2024-04-09T03:59:08.648Z,4.53
2024-04-09T04:01:36.581Z,4.28
2024-04-09T04:04:04.470Z,4.35
2024-04-09T04:06:32.445Z,4.38
2024-04-09T04:09:00.407Z,4.88
2024-04-09T04:11:32.434Z,4.43
2024-04-09T04:14:00.310Z,3.55
2024-04-09T04:16:28.163Z,4.03
2024-04-09T04:18:56.004Z,3.58
2024-04-09T04:21:25.510Z,2.90
2024-04-09T04:23:56.204Z,4.03
2024-04-09T04:26:26.059Z,3.22
2024-04-09T04:28:55.421Z,4.20
2024-04-09T04:31:27.223Z,3.55
2024-04-09T04:33:56.063Z,2.83
2024-04-09T04:36:24.143Z,3.05
2024-04-09T04:38:52.216Z,2.30
2024-04-09T04:41:20.122Z,2.67
2024-04-09T04:43:47.992Z,2.28
2024-04-09T04:46:15.971Z,2.20
2024-04-09T04:48:44.990Z,2.50
2024-04-09T04:51:13.302Z,2.10
2024-04-09T04:53:41.539Z,2.85
2024-04-09T04:56:10.216Z,2.50
2024-04-09T04:58:38.104Z,3.67
2024-04-09T05:01:06.639Z,3.47
2024-04-09T05:03:34.519Z,2.75
2024-04-09T05:06:09.386Z,3.15
2024-04-09T05:08:37.294Z,4.13
2024-04-09T05:11:10.077Z,3.47
2024-04-09T05:13:38.043Z,2.60
2024-04-09T05:16:06.183Z,2.17
2024-04-09T05:18:34.317Z,2.42
2024-04-09T05:21:02.291Z,1.70
2024-04-09T05:23:30.203Z,1.70
2024-04-09T05:25:58.174Z,1.80
2024-04-09T05:28:28.834Z,2.33
2024-04-09T05:30:57.359Z,2.03
2024-04-09T05:33:25.290Z,1.90
2024-04-09T05:35:53.792Z,2.00
2024-04-09T05:38:21.843Z,1.80
2024-04-09T05:40:57.128Z,1.52
2024-04-09T05:43:25.163Z,2.10
2024-04-09T05:45:52.994Z,1.92
2024-04-09T05:48:21.328Z,2.25
2024-04-09T05:50:49.624Z,2.00
2024-04-09T05:53:18.362Z,2.17
2024-04-09T05:55:56.478Z,1.90
2024-04-09T05:58:24.410Z,1.85
2024-04-09T06:00:55.204Z,2.47
2024-04-09T06:03:23.361Z,2.15
2024-04-09T06:05:52.917Z,1.92
2024-04-09T06:08:20.714Z,2.05
2024-04-09T06:10:48.642Z,2.60
2024-04-09T06:13:16.761Z,2.03
2024-04-09T06:15:45.770Z,1.90
2024-04-09T06:18:18.127Z,1.67
2024-04-09T06:20:47.788Z,2.15
2024-04-09T06:23:15.973Z,2.15
2024-04-09T06:25:43.852Z,1.92
2024-04-09T06:28:11.714Z,1.60
2024-04-09T06:30:40.579Z,1.80
2024-04-09T06:33:09.966Z,1.90
2024-04-09T06:35:40.160Z,1.75
2024-04-09T06:38:08.596Z,1.58
2024-04-09T06:40:37.845Z,1.80
2024-04-09T06:43:06.870Z,1.88
2024-04-09T06:45:34.729Z,1.85
2024-04-09T06:48:03.157Z,2.03
2024-04-09T06:50:31.143Z,1.90
2024-04-09T06:52:59.366Z,1.63
2024-04-09T06:55:27.217Z,2.00
2024-04-09T06:57:55.064Z,1.83
2024-04-09T07:00:23.247Z,2.88
2024-04-09T07:02:51.265Z,2.58
2024-04-09T07:05:19.120Z,2.00
2024-04-09T07:07:47.239Z,2.80
2024-04-09T07:10:15.363Z,2.08
2024-04-09T07:12:43.224Z,2.53
2024-04-09T07:15:12.506Z,2.55
2024-04-09T07:17:40.490Z,2.47
2024-04-09T07:20:10.222Z,2.53
2024-04-09T07:22:38.119Z,2.50
2024-04-09T07:25:06.211Z,2.75
2024-04-09T07:27:36.281Z,2.22
2024-04-09T07:30:05.083Z,3.03
2024-04-09T07:32:33.059Z,2.22
2024-04-09T07:35:01.158Z,2.38
2024-04-09T07:37:29.098Z,2.90
2024-04-09T07:39:57.044Z,2.28
2024-04-09T07:42:24.979Z,2.75
2024-04-09T07:44:52.931Z,2.38
2024-04-09T07:47:22.738Z,2.20
2024-04-09T07:49:52.387Z,1.92
2024-04-09T07:52:20.450Z,2.28
2024-04-09T07:54:48.528Z,2.17
2024-04-09T07:57:16.550Z,1.85
2024-04-09T07:59:45.382Z,2.35
2024-04-09T08:02:13.447Z,2.50
2024-04-09T08:04:41.653Z,2.33
2024-04-09T08:07:09.956Z,1.90
2024-04-09T08:09:38.480Z,2.20
2024-04-09T08:12:06.815Z,2.15
2024-04-09T08:14:34.719Z,2.10
2024-04-09T08:17:02.628Z,2.20
2024-04-09T08:19:32.860Z,2.10
2024-04-09T08:22:00.900Z,2.40
2024-04-09T08:24:28.843Z,2.30
2024-04-09T08:26:56.621Z,3.17
2024-04-09T08:29:25.224Z,2.35
2024-04-09T08:31:53.007Z,2.40
2024-04-09T08:34:21.707Z,2.30
2024-04-09T08:36:51.171Z,2.22
2024-04-09T08:39:19.375Z,3.00
2024-04-09T08:41:47.442Z,2.67
2024-04-09T08:44:16.438Z,2.63
2024-04-09T08:46:44.556Z,2.58
2024-04-09T08:49:13.767Z,2.50
2024-04-09T08:51:42.695Z,2.90
2024-04-09T08:54:12.248Z,2.50
2024-04-09T08:56:40.170Z,2.75
2024-04-09T08:59:09.394Z,2.38
2024-04-09T09:01:37.561Z,2.63
2024-04-09T09:04:09.128Z,1.98
2024-04-09T09:06:47.595Z,3.13
2024-04-09T09:09:28.868Z,2.22
2024-04-09T09:12:03.978Z,3.08
2024-04-09T09:14:32.348Z,2.80
2024-04-09T09:17:04.401Z,2.17
2024-04-09T09:19:36.258Z,2.60
2024-04-09T09:22:14.072Z,2.20
2024-04-09T09:24:42.491Z,2.60
2024-04-09T09:27:12.183Z,2.30
2024-04-09T09:29:40.053Z,2.17
2024-04-09T09:32:14.667Z,2.20
2024-04-09T09:34:44.525Z,2.58
2024-04-09T09:37:13.136Z,2.67
2024-04-09T09:39:43.008Z,3.22
2024-04-09T09:42:14.922Z,3.30
2024-04-09T09:44:46.719Z,3.10
2024-04-09T09:47:15.234Z,2.90
2024-04-09T09:49:44.098Z,3.00
2024-04-09T09:52:12.523Z,3.45
2024-04-09T09:54:40.486Z,3.15
2024-04-09T09:57:12.784Z,2.70
2024-04-09T09:59:49.162Z,3.10
2024-04-09T10:02:19.267Z,2.30
2024-04-09T10:04:47.437Z,3.17
2024-04-09T10:07:18.032Z,2.30
2024-04-09T10:09:55.644Z,2.70
2024-04-09T10:12:33.146Z,3.15
2024-04-09T10:15:08.976Z,2.78
2024-04-09T10:17:54.130Z,3.10
2024-04-09T10:20:33.199Z,3.00
2024-04-09T10:23:04.565Z,3.03
2024-04-09T10:25:42.023Z,3.25
2024-04-09T10:28:15.308Z,3.17
2024-04-09T10:30:48.387Z,3.20
2024-04-09T10:33:16.685Z,2.97
2024-04-09T10:35:45.406Z,3.38
2024-04-09T10:38:13.469Z,3.08
2024-04-09T10:40:41.350Z,3.53
2024-04-09T10:43:09.904Z,3.83
2024-04-09T10:45:47.819Z,3.72
2024-04-09T10:48:25.175Z,3.30
2024-04-09T10:50:53.691Z,2.83
2024-04-09T10:53:21.985Z,2.95
2024-04-09T10:55:50.456Z,2.90
2024-04-09T10:58:18.897Z,3.38
2024-04-09T11:00:53.970Z,2.80
2024-04-09T11:03:23.337Z,2.80
2024-04-09T11:05:55.073Z,3.28
2024-04-09T11:08:31.226Z,3.03
2024-04-09T11:11:07.356Z,2.80
2024-04-09T11:13:37.930Z,3.58
2024-04-09T11:16:05.925Z,4.20
2024-04-09T11:18:34.050Z,3.17
2024-04-09T11:21:03.052Z,3.33
2024-04-09T11:23:35.492Z,2.60
2024-04-09T11:26:03.831Z,2.70
2024-04-09T11:28:32.753Z,2.90
2024-04-09T11:31:02.060Z,2.78
2024-04-09T11:33:30.713Z,2.70
2024-04-09T11:36:10.370Z,2.70
2024-04-09T11:38:42.691Z,3.33
2024-04-09T11:41:11.157Z,2.70
2024-04-09T11:43:38.975Z,2.65
2024-04-09T11:46:06.913Z,2.78
2024-04-09T11:48:35.034Z,3.38
2024-04-09T11:51:03.026Z,2.72
2024-04-09T11:53:31.033Z,2.83
2024-04-09T11:56:00.874Z,2.65
2024-04-09T11:58:28.773Z,2.83
2024-04-09T12:00:57.825Z,2.88
2024-04-09T12:03:25.834Z,2.70
2024-04-09T12:05:53.881Z,2.83
2024-04-09T12:08:21.825Z,2.58
2024-04-09T12:10:50.175Z,2.53
2024-04-09T12:13:18.073Z,2.38
2024-04-09T12:15:46.150Z,2.88
2024-04-09T12:18:14.175Z,2.78
2024-04-09T12:20:42.056Z,2.42
2024-04-09T12:23:11.102Z,2.72
2024-04-09T12:25:39.189Z,2.83
2024-04-09T12:28:07.193Z,2.75
2024-04-09T12:30:36.250Z,2.85
2024-04-09T12:33:04.494Z,3.30
2024-04-09T12:35:32.909Z,2.70
2024-04-09T12:38:00.987Z,2.95
2024-04-09T12:40:29.082Z,3.25
2024-04-09T12:42:57.243Z,2.90
2024-04-09T12:45:25.573Z,2.47
2024-04-09T12:47:53.821Z,3.03
2024-04-09T12:50:22.568Z,3.60
2024-04-09T12:52:50.502Z,2.95
2024-04-09T12:55:18.478Z,2.83
2024-04-09T12:57:46.499Z,3.13
2024-04-09T13:00:34.372Z,3.50
2024-04-09T13:03:03.822Z,3.03
2024-04-09T13:05:32.307Z,3.47
2024-04-09T13:08:00.230Z,3.67
2024-04-09T13:10:28.940Z,3.75
2024-04-09T13:12:57.461Z,4.07
2024-04-09T13:17:56.178Z,3.63
2024-04-09T13:20:24.202Z,3.67
2024-04-09T13:22:52.026Z,3.67
2024-04-09T13:25:19.936Z,3.53
2024-04-09T13:27:47.870Z,3.70
2024-04-09T13:30:15.803Z,3.30
2024-04-09T13:32:43.729Z,3.50
2024-04-09T13:35:11.745Z,3.67
2024-04-09T13:37:42.570Z,3.53
2024-04-09T13:40:14.605Z,3.75
2024-04-09T13:42:46.849Z,3.75
2024-04-09T13:45:15.950Z,4.05
2024-04-09T13:47:47.975Z,3.25
2024-04-09T13:50:19.973Z,3.80
2024-04-09T13:52:48.850Z,3.55
2024-04-09T13:55:17.673Z,3.90
2024-04-09T13:57:45.586Z,3.72
2024-04-09T14:00:15.122Z,4.18
2024-04-09T14:02:43.901Z,3.83
2024-04-09T14:05:12.653Z,3.83
2024-04-09T14:07:40.882Z,3.97
2024-04-09T14:10:08.955Z,3.63
2024-04-09T14:12:37.155Z,3.95
2024-04-09T14:15:07.512Z,4.25
2024-04-09T14:17:39.396Z,3.40
2024-04-09T14:20:10.976Z,3.60
2024-04-09T14:22:41.624Z,3.97
2024-04-09T14:25:12.646Z,3.58
2024-04-09T14:27:40.630Z,3.97
2024-04-09T14:30:09.108Z,3.80
2024-04-09T14:32:37.392Z,3.58
2024-04-09T14:35:07.354Z,4.50
2024-04-09T14:37:35.255Z,4.15
2024-04-09T14:40:03.942Z,4.20
2024-04-09T14:42:31.802Z,3.85
2024-04-09T14:44:59.746Z,4.45
2024-04-09T14:47:27.708Z,3.75
2024-04-09T14:49:55.622Z,4.40
2024-04-09T14:52:23.688Z,3.60
2024-04-09T14:54:54.288Z,4.13
2024-04-09T14:57:23.556Z,4.30
2024-04-09T14:59:51.564Z,4.70
2024-04-09T15:02:19.789Z,4.65
2024-04-09T15:04:47.773Z,4.25
2024-04-09T15:07:15.606Z,4.25
2024-04-09T15:09:43.601Z,3.90
2024-04-09T15:12:11.641Z,3.53
2024-04-09T15:14:39.785Z,4.32
2024-04-09T15:17:08.138Z,4.60
2024-04-09T15:19:36.167Z,3.75
2024-04-09T15:22:07.183Z,3.92
2024-04-09T15:24:35.182Z,3.75
2024-04-09T15:27:04.667Z,3.70
2024-04-09T15:29:32.845Z,3.75
2024-04-09T15:32:01.063Z,4.20
2024-04-09T15:34:29.743Z,4.43
2024-04-09T15:36:57.679Z,4.25
2024-04-09T15:39:26.800Z,4.78
2024-04-09T15:41:54.613Z,4.95
2024-04-09T15:44:22.689Z,4.93
2024-04-09T15:46:51.034Z,4.75
2024-04-09T15:49:19.029Z,4.65
2024-04-09T15:51:47.134Z,5.03
2024-04-09T15:54:15.653Z,4.88
2024-04-09T15:56:43.677Z,5.03
2024-04-09T15:59:11.680Z,4.57
2024-04-09T16:01:43.457Z,4.40
2024-04-09T16:04:11.711Z,4.43
2024-04-09T16:06:40.553Z,5.03
2024-04-09T16:09:09.660Z,4.57
2024-04-09T16:11:37.779Z,4.38
2024-04-09T16:14:08.723Z,4.80
2024-04-09T16:16:37.949Z,4.57
2024-04-09T16:19:10.175Z,5.05
2024-04-09T16:21:39.711Z,4.50
2024-04-09T16:24:07.819Z,4.47
2024-04-09T16:26:35.800Z,4.20
2024-04-09T16:29:04.387Z,4.20
2024-04-09T16:31:32.278Z,4.00
2024-04-09T16:34:00.498Z,4.28
2024-04-09T16:36:28.567Z,4.53
2024-04-09T16:38:56.404Z,4.93
2024-04-09T16:41:24.319Z,5.13
2024-04-09T16:43:52.792Z,4.70
2024-04-09T16:46:20.584Z,5.30
2024-04-09T16:48:48.592Z,4.43
2024-04-09T16:51:18.838Z,4.72
2024-04-09T16:53:46.634Z,5.32
2024-04-09T16:56:14.570Z,4.53
2024-04-09T16:58:42.721Z,5.22
2024-04-09T17:01:11.075Z,5.20
2024-04-09T17:03:39.067Z,4.97
2024-04-09T17:06:07.652Z,4.65
2024-04-09T17:08:36.963Z,4.80
2024-04-09T17:11:07.838Z,4.22
2024-04-09T17:13:38.983Z,5.15
2024-04-09T17:16:08.086Z,4.82
2024-04-09T17:18:36.900Z,4.75
2024-04-09T17:21:05.338Z,4.78
2024-04-09T17:23:33.485Z,5.10
2024-04-09T17:26:05.387Z,4.82
2024-04-09T17:28:33.871Z,4.82
2024-04-09T17:31:01.826Z,4.53
2024-04-09T17:33:29.811Z,4.30
2024-04-09T17:35:58.420Z,4.90
2024-04-09T17:38:26.226Z,4.50
2024-04-09T17:40:54.162Z,4.53
2024-04-09T17:43:22.038Z,4.90
2024-04-09T17:45:56.982Z,4.85
2024-04-09T17:48:25.737Z,4.72
2024-04-09T17:50:53.952Z,4.57
2024-04-09T17:53:21.836Z,4.97
2024-04-09T17:55:49.837Z,4.88
2024-04-09T17:58:18.249Z,4.85
2024-04-09T18:00:47.749Z,4.57
2024-04-09T18:03:16.647Z,5.28
2024-04-09T18:05:44.526Z,4.95
2024-04-09T18:08:13.571Z,5.50
2024-04-09T18:10:44.976Z,5.32
2024-04-09T18:13:13.147Z,5.30
2024-04-09T18:15:40.944Z,5.80
2024-04-09T18:18:09.077Z,5.18
2024-04-09T18:20:37.188Z,4.70
2024-04-09T18:23:06.260Z,4.70
2024-04-09T18:25:34.648Z,5.03
2024-04-09T18:28:02.697Z,4.25
2024-04-09T18:30:30.539Z,5.00
2024-04-09T18:33:00.468Z,4.93
2024-04-09T18:35:32.234Z,4.95
2024-04-09T18:38:00.225Z,4.95
2024-04-09T18:40:28.213Z,5.07
2024-04-09T18:42:56.809Z,4.07
2024-04-09T18:45:24.964Z,4.72
2024-04-09T18:47:53.490Z,4.90
2024-04-09T18:50:21.704Z,4.90
2024-04-09T18:52:50.181Z,5.53
2024-04-09T18:55:18.435Z,4.70
2024-04-09T18:57:46.759Z,4.70
2024-04-09T19:00:17.236Z,5.22
2024-04-09T19:02:46.020Z,5.60
2024-04-09T19:05:14.463Z,5.07
2024-04-09T19:07:42.970Z,5.80
2024-04-09T19:10:11.543Z,4.85
2024-04-09T19:12:42.421Z,5.85
2024-04-09T19:15:10.938Z,4.78
2024-04-09T19:17:40.202Z,5.47
2024-04-09T19:20:09.747Z,5.30
2024-04-09T19:22:38.386Z,4.82
2024-04-09T19:25:08.442Z,6.22
2024-04-09T19:27:37.215Z,4.53
2024-04-09T19:30:06.519Z,5.43
2024-04-09T19:32:35.325Z,6.03
2024-04-09T19:35:07.709Z,4.70
2024-04-09T19:37:40.719Z,6.32
2024-04-09T19:40:11.118Z,6.65
2024-04-09T19:42:39.522Z,6.93
2024-04-09T19:45:08.398Z,5.70
2024-04-09T19:47:37.594Z,6.45
2024-04-09T19:50:07.065Z,6.40
2024-04-09T19:52:38.383Z,6.18
2024-04-09T19:55:09.990Z,6.05
2024-04-09T19:57:38.443Z,6.20
2024-04-09T20:00:08.791Z,5.95
2024-04-09T20:02:42.611Z,6.63
2024-04-09T20:07:39.603Z,5.50
2024-04-09T20:10:09.372Z,5.80
2024-04-09T20:12:38.262Z,6.85
2024-04-09T20:15:07.262Z,6.15
2024-04-09T20:17:36.070Z,6.53
2024-04-09T20:20:08.428Z,6.22
2024-04-09T20:22:38.876Z,6.38
2024-04-09T20:25:09.491Z,6.55
2024-04-09T20:27:37.974Z,6.32
2024-04-09T20:30:06.887Z,6.65
2024-04-09T20:32:37.409Z,5.72
2024-04-09T20:35:09.752Z,7.05
2024-04-09T20:37:38.294Z,5.45
2024-04-09T20:40:11.642Z,5.63
2024-04-09T20:42:41.985Z,4.95
2024-04-09T20:45:10.639Z,5.32
2024-04-09T20:47:40.363Z,4.60
2024-04-09T20:50:09.213Z,5.28
2024-04-09T20:52:37.791Z,4.55
2024-04-09T20:55:06.711Z,4.43
2024-04-09T20:57:34.943Z,4.20
2024-04-09T21:00:03.090Z,5.15
2024-04-09T21:02:32.032Z,4.50
2024-04-09T21:05:00.513Z,4.72
2024-04-09T21:07:28.864Z,5.32
2024-04-09T21:09:56.963Z,5.38
2024-04-09T21:12:25.206Z,5.15
2024-04-09T21:14:53.267Z,5.20
2024-04-09T21:17:21.348Z,4.40
2024-04-09T21:19:49.364Z,4.63
2024-04-09T21:22:17.203Z,4.70
2024-04-09T21:24:45.065Z,3.97
2024-04-09T21:27:13.417Z,4.95
2024-04-09T21:29:42.094Z,4.78
2024-04-09T21:32:09.958Z,6.28
2024-04-09T21:34:37.902Z,4.72
2024-04-09T21:37:06.390Z,4.90
2024-04-09T21:39:35.199Z,5.20
2024-04-09T21:42:03.245Z,4.68
2024-04-09T21:44:31.285Z,4.82
2024-04-09T21:46:59.383Z,5.40
2024-04-09T21:49:27.362Z,6.43
2024-04-09T21:51:55.192Z,4.80
2024-04-09T21:54:23.368Z,6.50
2024-04-09T21:56:51.195Z,5.35
2024-04-09T21:59:19.947Z,5.32
2024-04-09T22:01:48.141Z,5.18
2024-04-09T22:04:16.165Z,5.05
2024-04-09T22:06:44.062Z,5.35
2024-04-09T22:09:12.432Z,5.20
2024-04-09T22:11:40.471Z,5.18
2024-04-09T22:14:09.259Z,4.93
2024-04-09T22:16:37.466Z,4.90
2024-04-09T22:19:05.342Z,4.65
2024-04-09T22:21:33.318Z,6.53
2024-04-09T22:24:01.258Z,5.43
2024-04-09T22:26:30.207Z,4.70
2024-04-09T22:28:58.151Z,4.88
2024-04-09T22:31:26.412Z,4.72
2024-04-09T22:33:55.173Z,4.82
2024-04-09T22:36:23.337Z,4.85
2024-04-09T22:38:51.170Z,4.63
2024-04-09T22:41:19.448Z,4.70
2024-04-09T22:43:47.523Z,5.55
2024-04-09T22:46:15.412Z,4.75
2024-04-09T22:48:43.343Z,4.60
2024-04-09T22:51:11.924Z,4.63
2024-04-09T22:53:39.840Z,4.85
2024-04-09T22:56:07.775Z,4.38
2024-04-09T22:58:35.726Z,4.80
2024-04-09T23:01:08.551Z,4.75
2024-04-09T23:03:38.809Z,4.93
2024-04-09T23:06:12.697Z,4.25
2024-04-09T23:08:40.989Z,5.03
2024-04-09T23:11:10.954Z,4.35
2024-04-09T23:13:39.866Z,5.82
2024-04-09T23:16:11.934Z,5.15
2024-04-09T23:18:40.307Z,5.40
2024-04-09T23:21:08.526Z,6.47
2024-04-09T23:23:36.619Z,6.25
2024-04-09T23:26:04.756Z,6.25
2024-04-09T23:28:33.605Z,6.10
2024-04-09T23:31:01.434Z,6.45
2024-04-09T23:33:29.391Z,6.00
2024-04-09T23:35:57.233Z,6.25
2024-04-09T23:38:25.384Z,5.65
2024-04-09T23:40:53.535Z,5.80
2024-04-09T23:43:21.364Z,6.07
2024-04-09T23:45:49.714Z,5.72
2024-04-09T23:48:17.975Z,7.10
2024-04-09T23:50:46.045Z,6.32
2024-04-09T23:53:14.003Z,5.57
2024-04-09T23:55:41.989Z,5.85
2024-04-09T23:58:10.776Z,6.13
